createdAt,value
2023-02-06T05:33:41.905Z,23.27
2023-02-06T05:57:35.967Z,22.20
2023-02-06T06:02:37.743Z,23.40
2023-02-06T06:07:39.530Z,24.25
2023-02-06T06:12:41.265Z,23.23
2023-02-06T06:17:43.124Z,22.87
2023-02-06T06:22:44.760Z,23.70
2023-02-06T06:27:46.643Z,23.07
2023-02-06T06:32:48.309Z,23.07
2023-02-06T06:37:51.048Z,23.30
2023-02-06T06:42:52.682Z,24.33
2023-02-06T06:47:54.401Z,24.00
2023-02-06T06:52:56.196Z,25.17
2023-02-06T06:57:59.074Z,25.67
2023-02-06T07:03:00.841Z,24.00
2023-02-06T07:08:02.691Z,23.87
2023-02-06T07:13:04.459Z,25.53
2023-02-06T07:18:06.212Z,24.10
2023-02-06T07:23:07.894Z,24.27
2023-02-06T07:28:09.959Z,24.13
2023-02-06T07:33:11.653Z,24.17
2023-02-06T07:38:13.448Z,24.50
2023-02-06T07:43:15.436Z,24.20
2023-02-06T07:48:17.331Z,25.00
2023-02-06T07:53:22.659Z,25.50
2023-02-06T07:58:24.742Z,26.00
2023-02-06T08:03:26.575Z,25.33
2023-02-06T08:08:30.210Z,26.47
2023-02-06T08:13:31.893Z,25.97
2023-02-06T08:18:34.537Z,26.57
2023-02-06T08:23:36.417Z,25.43
2023-02-06T08:28:40.105Z,24.30
2023-02-06T08:33:46.079Z,24.93
2023-02-06T08:38:48.512Z,25.50
2023-02-06T08:43:52.386Z,24.90
2023-02-06T08:49:00.461Z,25.00
2023-02-06T08:54:08.126Z,25.30
2023-02-06T08:59:11.611Z,25.10
2023-02-06T09:04:14.387Z,24.90
2023-02-06T09:09:17.151Z,33.40
2023-02-06T09:14:19.074Z,27.07
2023-02-06T09:19:20.931Z,26.53
2023-02-06T09:24:22.728Z,26.07
2023-02-06T09:29:24.682Z,26.47
2023-02-06T09:34:28.421Z,26.00
2023-02-06T09:39:32.534Z,26.83
2023-02-06T09:44:37.943Z,27.50
2023-02-06T09:49:45.866Z,27.97
2023-02-06T09:55:27.163Z,26.23
2023-02-06T10:00:47.183Z,27.17
2023-02-06T10:06:12.650Z,27.20
2023-02-06T10:11:39.589Z,29.00
2023-02-06T10:17:03.156Z,28.40
2023-02-06T10:22:30.951Z,29.53
2023-02-06T10:27:35.427Z,29.23
2023-02-06T10:32:53.580Z,28.70
2023-02-06T10:38:43.240Z,28.40
2023-02-06T10:44:00.801Z,29.53
2023-02-06T10:49:19.278Z,29.73
2023-02-06T10:54:38.874Z,28.33
2023-02-06T10:59:45.669Z,28.60
2023-02-06T11:04:58.557Z,28.57
2023-02-06T11:10:00.562Z,27.63
2023-02-06T11:15:25.358Z,28.27
2023-02-06T11:20:32.828Z,27.37
2023-02-06T11:25:34.982Z,27.93
2023-02-06T11:30:40.879Z,28.17
2023-02-06T11:35:55.093Z,27.13
2023-02-06T11:41:01.371Z,26.50
2023-02-06T11:46:26.462Z,26.57
2023-02-06T11:51:49.067Z,27.03
2023-02-06T11:57:03.373Z,26.37
2023-02-06T12:02:27.087Z,26.30
2023-02-06T12:07:39.613Z,24.60
2023-02-06T12:12:46.082Z,25.73
2023-02-06T12:17:56.557Z,26.27
2023-02-06T12:23:07.782Z,26.60
2023-02-06T12:28:30.104Z,25.90
2023-02-06T12:33:40.550Z,25.40
2023-02-06T12:39:12.446Z,25.60
2023-02-06T12:44:28.121Z,25.43
2023-02-06T12:49:37.154Z,25.93
2023-02-06T12:55:14.200Z,26.10
2023-02-06T13:00:40.407Z,26.27
2023-02-06T13:05:47.987Z,25.50
2023-02-06T13:11:01.947Z,26.53
2023-02-06T13:16:05.782Z,26.43
2023-02-06T13:21:28.875Z,26.40
2023-02-06T13:26:53.462Z,26.00
2023-02-06T13:32:18.905Z,25.47
2023-02-06T13:37:39.790Z,25.93
2023-02-06T13:42:49.535Z,25.73
2023-02-06T13:48:19.161Z,26.27
2023-02-06T13:53:47.940Z,26.20
2023-02-06T13:58:54.323Z,24.57
2023-02-06T14:03:58.120Z,24.47
2023-02-06T14:09:08.987Z,25.43
2023-02-06T14:14:44.166Z,24.60
2023-02-06T14:19:55.923Z,25.17
2023-02-06T14:25:07.684Z,24.67
2023-02-06T14:30:22.694Z,26.77
2023-02-06T14:35:33.960Z,28.07
2023-02-06T14:40:42.865Z,28.23
2023-02-06T14:46:05.352Z,27.47
2023-02-06T14:51:18.042Z,25.83
2023-02-06T14:56:27.312Z,26.67
2023-02-06T15:01:34.210Z,26.77
2023-02-06T15:06:39.346Z,26.63
2023-02-06T15:11:49.860Z,25.90
2023-02-06T15:16:52.649Z,25.53
2023-02-06T15:22:13.108Z,25.63
2023-02-06T15:27:28.714Z,25.57
2023-02-06T15:32:34.565Z,26.60
2023-02-06T15:37:36.645Z,26.00
2023-02-06T15:42:38.735Z,25.93
2023-02-06T15:47:41.459Z,25.90
2023-02-06T15:52:47.121Z,27.03
2023-02-06T15:57:49.942Z,25.77
2023-02-06T16:02:54.700Z,24.50
2023-02-06T16:07:56.645Z,25.60
2023-02-06T16:13:01.806Z,24.00
2023-02-06T16:18:27.006Z,25.37
2023-02-06T16:23:31.012Z,25.93
2023-02-06T16:28:39.047Z,26.60
2023-02-06T16:33:43.835Z,26.00
2023-02-06T16:38:54.232Z,25.40
2023-02-06T16:44:07.091Z,26.30
2023-02-06T16:49:18.140Z,26.33
2023-02-06T16:54:28.790Z,26.60
2023-02-06T16:59:30.715Z,31.03
2023-02-06T17:04:32.843Z,41.20
2023-02-06T17:09:35.173Z,39.43
2023-02-06T17:14:36.889Z,32.37
2023-02-06T17:19:39.359Z,31.63
2023-02-06T17:24:42.604Z,29.57
2023-02-06T17:29:47.238Z,28.47
2023-02-06T17:34:50.736Z,28.57
2023-02-06T17:39:52.892Z,28.57
2023-02-06T17:44:54.756Z,28.37
2023-02-06T17:49:56.497Z,29.17
2023-02-06T17:54:58.252Z,29.57
2023-02-06T18:00:00.013Z,29.37
2023-02-06T18:05:01.816Z,29.97
2023-02-06T18:10:05.175Z,32.77
2023-02-06T18:15:08.134Z,32.57
2023-02-06T18:20:12.674Z,32.37
2023-02-06T18:25:15.523Z,33.07
2023-02-06T18:30:17.371Z,31.33
2023-02-06T18:35:19.957Z,32.23
2023-02-06T18:40:22.099Z,31.67
2023-02-06T18:45:31.193Z,30.43
2023-02-06T18:50:33.982Z,30.53
2023-02-06T18:55:37.297Z,30.13
2023-02-06T19:00:42.404Z,31.07
2023-02-06T19:05:44.118Z,30.70
2023-02-06T19:10:45.771Z,30.73
2023-02-06T19:15:47.588Z,30.80
2023-02-06T19:20:49.223Z,31.03
2023-02-06T19:25:50.952Z,30.17
2023-02-06T19:30:52.801Z,30.53
2023-02-06T19:35:54.696Z,30.87
2023-02-06T19:40:56.460Z,30.97
2023-02-06T19:46:05.433Z,30.70
2023-02-06T19:51:13.804Z,30.37
2023-02-06T19:56:25.005Z,31.73
2023-02-06T20:01:29.596Z,31.87
2023-02-06T20:06:35.191Z,35.63
2023-02-06T20:11:37.664Z,31.20
2023-02-06T20:16:41.676Z,30.43
2023-02-06T20:21:46.744Z,31.23
2023-02-06T20:26:50.419Z,29.03
2023-02-06T20:31:52.693Z,27.90
2023-02-06T20:36:55.576Z,27.13
2023-02-06T20:41:57.414Z,29.10
2023-02-06T20:46:59.336Z,27.57
2023-02-06T20:52:01.477Z,27.53
